createdAt,value
2023-02-25T00:02:30.991Z,71.10
2023-02-25T00:05:13.987Z,70.03
2023-02-25T00:08:07.990Z,72.75
2023-02-25T00:11:03.975Z,72.82
2023-02-25T00:13:38.081Z,65.93
2023-02-25T00:16:27.094Z,66.72
2023-02-25T00:19:09.982Z,63.33
2023-02-25T00:22:03.990Z,64.40
2023-02-25T00:24:57.986Z,48.85
2023-02-25T00:27:51.996Z,49.63
2023-02-25T00:30:40.101Z,53.35
2023-02-25T00:33:13.188Z,54.03
2023-02-25T00:36:00.002Z,52.10
2023-02-25T00:38:40.054Z,52.63
2023-02-25T00:41:39.998Z,47.30
2023-02-25T00:44:26.979Z,47.78
2023-02-25T00:47:07.015Z,49.72
2023-02-25T00:49:54.006Z,45.05
2023-02-25T00:52:34.048Z,42.88
2023-02-25T00:55:21.021Z,48.95
2023-02-25T00:57:54.089Z,45.42
2023-02-25T01:00:51.279Z,51.58
2023-02-25T01:03:25.080Z,50.58
2023-02-25T01:06:15.021Z,46.20
2023-02-25T01:08:49.293Z,44.00
2023-02-25T01:11:40.081Z,40.75
2023-02-25T01:14:22.997Z,28.33
2023-02-25T01:17:10.019Z,27.73
2023-02-25T01:19:43.096Z,26.77
2023-02-25T01:22:31.005Z,30.73
2023-02-25T01:25:04.218Z,30.17
2023-02-25T01:27:51.065Z,31.08
2023-02-25T01:30:24.141Z,33.17
2023-02-25T01:33:11.071Z,28.48
2023-02-25T01:35:44.137Z,32.80
2023-02-25T01:38:31.012Z,30.95
2023-02-25T01:41:06.276Z,28.83
2023-02-25T01:44:24.123Z,32.00
2023-02-25T01:47:01.366Z,30.45
2023-02-25T01:49:53.003Z,31.50
2023-02-25T01:52:37.064Z,31.75
2023-02-25T01:55:18.008Z,27.90
2023-02-25T01:58:05.046Z,30.45
2023-02-25T02:01:02.105Z,31.05
2023-02-25T02:03:50.031Z,28.85
2023-02-25T02:06:41.059Z,29.25
2023-02-25T02:09:38.004Z,29.23
2023-02-25T02:12:32.060Z,30.45
2023-02-25T02:15:22.029Z,34.55
2023-02-25T02:18:16.035Z,30.45
2023-02-25T02:21:36.024Z,28.30
2023-02-25T02:24:37.040Z,31.48
2023-02-25T02:27:46.019Z,32.78
2023-02-25T02:30:42.070Z,31.42
2023-02-25T02:33:49.031Z,30.70
2023-02-25T02:36:52.212Z,30.17
2023-02-25T02:39:54.127Z,29.80
2023-02-25T02:42:47.146Z,32.30
2023-02-25T02:46:16.177Z,30.92
2023-02-25T02:48:58.171Z,34.33
2023-02-25T02:52:00.066Z,30.42
2023-02-25T02:54:44.130Z,35.63
2023-02-25T02:57:34.033Z,28.80
2023-02-25T03:00:25.042Z,27.77
2023-02-25T03:03:24.048Z,27.17
2023-02-25T03:06:19.048Z,28.33
2023-02-25T03:09:00.149Z,30.02
2023-02-25T03:11:47.030Z,32.80
2023-02-25T03:14:28.103Z,29.58
2023-02-25T03:17:23.040Z,28.27
2023-02-25T03:20:21.028Z,32.15
2023-02-25T03:23:19.063Z,32.08
2023-02-25T03:26:44.103Z,31.95
2023-02-25T03:29:39.053Z,33.58
2023-02-25T03:32:27.237Z,37.65
2023-02-25T03:35:05.051Z,40.45
2023-02-25T03:37:56.109Z,41.38
2023-02-25T03:40:40.760Z,38.30
2023-02-25T03:43:47.052Z,44.03
2023-02-25T03:46:42.085Z,41.05
2023-02-25T03:49:46.203Z,42.78
2023-02-25T03:52:31.066Z,42.08
2023-02-25T03:55:27.106Z,36.63
2023-02-25T03:58:15.059Z,30.20
2023-02-25T04:00:51.223Z,29.58
2023-02-25T04:03:38.094Z,27.08
2023-02-25T04:06:12.193Z,27.83
2023-02-25T04:08:59.123Z,26.77
2023-02-25T04:11:39.128Z,25.52
2023-02-25T04:14:33.123Z,27.23
2023-02-25T04:17:36.941Z,26.85
2023-02-25T04:20:31.127Z,26.60
2023-02-25T04:23:28.092Z,19.98
2023-02-25T04:26:22.530Z,17.60
2023-02-25T04:29:10.119Z,15.95
2023-02-25T04:31:50.330Z,14.95
2023-02-25T04:34:37.128Z,14.55
2023-02-25T04:37:11.263Z,16.55
2023-02-25T04:39:58.129Z,16.48
2023-02-25T04:42:31.206Z,17.92
2023-02-25T04:45:19.118Z,17.08
2023-02-25T04:47:52.219Z,16.20
2023-02-25T04:50:39.125Z,15.60
2023-02-25T04:53:14.929Z,14.25
2023-02-25T04:56:02.115Z,17.92
2023-02-25T04:58:37.265Z,16.85
2023-02-25T05:01:27.055Z,15.98
2023-02-25T05:04:03.373Z,15.57
2023-02-25T05:06:50.156Z,14.80
2023-02-25T05:09:30.104Z,15.25
2023-02-25T05:12:24.152Z,14.02
2023-02-25T05:15:23.139Z,15.95
2023-02-25T05:18:10.104Z,14.07
2023-02-25T05:20:52.256Z,13.25
2023-02-25T05:23:46.104Z,14.77
2023-02-25T05:26:33.133Z,16.10
2023-02-25T05:29:13.270Z,17.08
2023-02-25T05:32:09.255Z,16.85
2023-02-25T05:35:03.166Z,15.43
2023-02-25T05:37:50.102Z,17.95
2023-02-25T05:40:23.224Z,18.02
2023-02-25T05:43:10.125Z,16.33
2023-02-25T05:45:43.224Z,18.40
2023-02-25T05:48:30.148Z,17.20
2023-02-25T05:51:23.669Z,15.43
2023-02-25T05:54:10.154Z,16.13
2023-02-25T05:56:44.395Z,13.48
2023-02-25T05:59:34.510Z,16.05
2023-02-25T06:02:08.321Z,15.70
2023-02-25T06:05:01.172Z,16.08
2023-02-25T06:07:39.216Z,13.05
2023-02-25T06:10:26.164Z,16.60
2023-02-25T06:13:07.143Z,15.10
2023-02-25T06:16:01.164Z,17.83
2023-02-25T06:18:49.136Z,15.77
2023-02-25T06:21:31.131Z,17.73
2023-02-25T06:24:26.160Z,17.45
2023-02-25T06:27:15.128Z,12.38
2023-02-25T06:29:55.131Z,12.45
2023-02-25T06:32:51.197Z,14.07
2023-02-25T06:35:47.133Z,13.55
2023-02-25T06:38:34.162Z,14.07
2023-02-25T06:41:23.133Z,11.48
2023-02-25T06:44:18.179Z,13.27
2023-02-25T06:47:07.140Z,14.13
2023-02-25T06:49:47.176Z,15.00
2023-02-25T06:52:42.173Z,14.75
2023-02-25T06:55:37.131Z,13.77
2023-02-25T06:58:24.155Z,15.13
2023-02-25T07:00:57.272Z,16.50
2023-02-25T07:03:44.168Z,15.15
2023-02-25T07:06:18.386Z,15.00
2023-02-25T07:09:06.147Z,16.95
2023-02-25T07:11:47.172Z,15.77
2023-02-25T07:14:41.149Z,16.70
2023-02-25T07:17:28.177Z,17.75
2023-02-25T07:20:01.234Z,18.05
2023-02-25T07:22:49.180Z,16.65
2023-02-25T07:25:22.308Z,18.05
2023-02-25T07:28:09.181Z,18.80
2023-02-25T07:30:42.377Z,16.98
2023-02-25T07:33:29.181Z,15.93
2023-02-25T07:36:03.251Z,16.95
2023-02-25T07:38:51.169Z,16.33
2023-02-25T07:41:34.974Z,16.90
2023-02-25T07:44:29.176Z,17.42
2023-02-25T07:47:16.178Z,17.40
2023-02-25T07:49:56.179Z,17.83
2023-02-25T07:52:43.181Z,17.17
2023-02-25T07:55:24.173Z,17.05
2023-02-25T07:58:18.184Z,16.58
2023-02-25T08:01:05.179Z,16.67
2023-02-25T08:03:45.184Z,16.00
2023-02-25T08:06:33.196Z,16.92
2023-02-25T08:09:06.264Z,17.40
2023-02-25T08:11:53.186Z,19.88
2023-02-25T08:14:26.273Z,19.00
2023-02-25T08:17:13.189Z,17.05
2023-02-25T08:19:54.295Z,17.10
2023-02-25T08:22:48.172Z,17.15
2023-02-25T08:25:42.203Z,17.75
2023-02-25T08:28:32.634Z,19.88
2023-02-25T08:31:07.703Z,16.70
2023-02-25T08:33:56.181Z,18.20
2023-02-25T08:36:32.287Z,16.52
2023-02-25T08:39:19.184Z,15.77
2023-02-25T08:41:52.289Z,17.00
2023-02-25T08:44:41.262Z,13.77
2023-02-25T08:47:14.384Z,13.50
2023-02-25T08:50:01.241Z,15.73
2023-02-25T08:52:35.517Z,16.58
2023-02-25T08:55:22.183Z,15.38
2023-02-25T08:57:55.320Z,15.25
2023-02-25T09:00:43.260Z,16.30
2023-02-25T09:03:16.817Z,15.30
2023-02-25T09:06:03.181Z,15.25
2023-02-25T09:08:36.431Z,15.43
2023-02-25T09:11:24.415Z,14.30
2023-02-25T09:13:59.319Z,14.30
2023-02-25T09:16:46.245Z,13.68
2023-02-25T09:19:27.230Z,14.68
2023-02-25T09:22:15.219Z,14.85
2023-02-25T09:24:48.398Z,15.32
2023-02-25T09:27:35.224Z,14.30
2023-02-25T09:30:08.330Z,14.07
2023-02-25T09:32:55.436Z,12.77
2023-02-25T09:35:29.279Z,12.57
2023-02-25T09:38:16.179Z,14.38
2023-02-25T09:40:53.297Z,13.98
2023-02-25T09:43:49.344Z,13.23
2023-02-25T09:46:31.227Z,13.05
2023-02-25T09:49:43.245Z,13.23
2023-02-25T09:52:59.220Z,12.77
2023-02-25T09:55:51.500Z,12.80
2023-02-25T09:58:41.269Z,14.05
2023-02-25T10:01:48.229Z,13.55
2023-02-25T10:05:13.229Z,13.80
2023-02-25T10:08:18.217Z,14.80
2023-02-25T10:11:08.196Z,13.50
2023-02-25T10:13:54.378Z,13.55
2023-02-25T10:16:58.236Z,14.02
2023-02-25T10:19:49.453Z,14.07
2023-02-25T10:23:06.207Z,12.57
2023-02-25T10:25:56.225Z,11.52
2023-02-25T10:28:52.215Z,11.70
2023-02-25T10:31:46.460Z,11.68
2023-02-25T10:34:45.277Z,11.80
2023-02-25T10:37:39.250Z,12.40
2023-02-25T10:40:14.366Z,13.05
2023-02-25T10:43:05.250Z,13.40
2023-02-25T10:45:48.244Z,12.55
2023-02-25T10:48:43.238Z,12.15
2023-02-25T10:51:37.231Z,11.48
2023-02-25T10:54:24.215Z,13.98
2023-02-25T10:57:05.241Z,16.52
2023-02-25T10:59:59.235Z,11.52
2023-02-25T11:02:50.306Z,12.05
2023-02-25T11:05:55.352Z,14.43
2023-02-25T11:08:43.245Z,13.13
2023-02-25T11:11:24.696Z,11.50
2023-02-25T11:14:23.240Z,13.32
2023-02-25T11:17:03.243Z,15.23
2023-02-25T11:20:00.243Z,17.55
2023-02-25T11:22:50.250Z,13.98
2023-02-25T11:25:25.322Z,16.30
2023-02-25T11:28:27.252Z,16.13
2023-02-25T11:31:01.512Z,16.75
2023-02-25T11:33:52.253Z,11.65
2023-02-25T11:36:38.268Z,14.07
2023-02-25T11:39:41.245Z,13.23
2023-02-25T11:42:33.247Z,13.82
2023-02-25T11:45:08.334Z,15.13
2023-02-25T11:47:56.229Z,13.73
2023-02-25T11:50:32.349Z,14.88
2023-02-25T11:53:45.342Z,14.10
2023-02-25T11:56:55.259Z,14.90
2023-02-25T11:59:54.245Z,13.68
2023-02-25T12:02:44.407Z,14.57
2023-02-25T12:06:03.288Z,14.80
2023-02-25T12:08:57.060Z,13.88
2023-02-25T12:12:12.244Z,13.10
2023-02-25T12:15:04.260Z,15.15
2023-02-25T12:17:57.242Z,14.75
2023-02-25T12:20:52.331Z,15.77
2023-02-25T12:23:54.277Z,14.52
2023-02-25T12:27:07.267Z,16.50
2023-02-25T12:30:13.264Z,16.73
2023-02-25T12:33:09.247Z,15.30
2023-02-25T12:35:54.379Z,15.70
2023-02-25T12:38:44.256Z,14.80
2023-02-25T12:41:29.592Z,15.27
2023-02-25T12:44:28.261Z,15.55
2023-02-25T12:47:08.259Z,16.90
2023-02-25T12:50:07.279Z,14.80
2023-02-25T12:53:16.299Z,15.82
2023-02-25T12:56:15.294Z,15.40
2023-02-25T12:59:18.262Z,17.27
2023-02-25T13:02:42.283Z,18.52
2023-02-25T13:05:42.277Z,18.45
2023-02-25T13:08:45.285Z,17.27
2023-02-25T13:12:13.627Z,16.17
2023-02-25T13:14:54.388Z,15.45
2023-02-25T13:18:00.299Z,15.13
2023-02-25T13:20:48.315Z,15.27
2023-02-25T13:23:49.280Z,14.00
2023-02-25T13:27:09.292Z,15.48
2023-02-25T13:30:05.248Z,12.45
2023-02-25T13:32:52.379Z,12.77
2023-02-25T13:35:50.322Z,15.60
2023-02-25T13:38:38.394Z,16.42
2023-02-25T13:41:31.401Z,15.98
2023-02-25T13:44:32.391Z,16.83
2023-02-25T13:47:34.347Z,13.38
2023-02-25T13:50:49.297Z,13.82
2023-02-25T13:54:02.301Z,13.18
2023-02-25T13:56:59.293Z,15.13
2023-02-25T14:00:11.307Z,14.32
2023-02-25T14:03:32.296Z,14.68
2023-02-25T14:06:25.304Z,13.52
2023-02-25T14:09:13.399Z,14.05
2023-02-25T14:12:22.321Z,13.57
2023-02-25T14:15:25.425Z,13.10
2023-02-25T14:18:32.286Z,13.18
2023-02-25T14:21:35.468Z,14.20
2023-02-25T14:24:43.295Z,13.68
2023-02-25T14:28:19.304Z,14.95
2023-02-25T14:31:34.471Z,12.93
2023-02-25T14:34:20.314Z,13.50
2023-02-25T14:38:01.298Z,12.50
2023-02-25T14:41:03.323Z,12.15
2023-02-25T14:43:53.297Z,11.60
2023-02-25T14:46:59.345Z,12.70
2023-02-25T14:50:00.329Z,13.93
2023-02-25T14:53:12.303Z,14.52
2023-02-25T14:56:11.310Z,14.23
2023-02-25T14:59:33.355Z,13.43
2023-02-25T15:02:35.361Z,13.32
2023-02-25T15:05:18.332Z,13.20
2023-02-25T15:08:40.331Z,12.15
2023-02-25T15:11:49.346Z,12.15
2023-02-25T15:14:46.454Z,11.98
2023-02-25T15:17:51.335Z,24.17
2023-02-25T15:20:38.971Z,14.10
2023-02-25T15:23:27.313Z,12.13
2023-02-25T15:26:25.466Z,15.02
2023-02-25T15:29:28.341Z,13.43
2023-02-25T15:32:31.074Z,14.00
2023-02-25T15:35:22.319Z,11.15
2023-02-25T15:38:05.324Z,11.80
2023-02-25T15:41:07.332Z,13.18
2023-02-25T15:43:54.353Z,12.90
2023-02-25T15:46:42.546Z,19.02
2023-02-25T15:49:40.329Z,19.33
2023-02-25T15:52:23.354Z,14.63
2023-02-25T15:55:26.331Z,14.02
2023-02-25T15:58:06.373Z,16.20
2023-02-25T16:01:00.444Z,13.38
2023-02-25T16:03:48.359Z,13.23
2023-02-25T16:06:47.482Z,13.43
2023-02-25T16:09:34.389Z,13.48
2023-02-25T16:12:12.440Z,11.85
2023-02-25T16:14:53.332Z,13.27
2023-02-25T16:17:40.466Z,12.05
2023-02-25T16:20:30.343Z,13.57
2023-02-25T16:23:10.372Z,12.15
2023-02-25T16:26:19.345Z,12.48
2023-02-25T16:29:27.360Z,11.25
2023-02-25T16:32:22.574Z,13.52
2023-02-25T16:35:15.352Z,14.23
2023-02-25T16:38:17.369Z,12.15
2023-02-25T16:41:14.344Z,13.43
2023-02-25T16:44:08.385Z,12.25
2023-02-25T16:47:05.344Z,13.35
2023-02-25T16:49:54.366Z,12.63
2023-02-25T16:52:42.359Z,12.90
2023-02-25T16:55:41.384Z,12.57
2023-02-25T16:58:40.359Z,14.10
2023-02-25T17:01:29.422Z,15.95
2023-02-25T17:04:20.654Z,15.18
2023-02-25T17:07:24.359Z,13.57
2023-02-25T17:10:00.669Z,12.32
2023-02-25T17:12:52.365Z,13.95
2023-02-25T17:15:59.394Z,14.02
2023-02-25T17:19:01.369Z,15.30
2023-02-25T17:21:50.374Z,14.93
2023-02-25T17:24:26.935Z,15.27
2023-02-25T17:27:18.415Z,15.85
2023-02-25T17:29:52.877Z,14.05
2023-02-25T17:32:39.365Z,14.27
2023-02-25T17:35:20.393Z,17.35
2023-02-25T17:38:15.410Z,14.32
2023-02-25T17:41:09.400Z,14.07
2023-02-25T17:43:56.388Z,14.65
2023-02-25T17:46:38.596Z,13.00
2023-02-25T17:49:25.401Z,14.40
2023-02-25T17:52:01.474Z,14.02
2023-02-25T17:54:53.388Z,13.85
2023-02-25T17:57:29.546Z,14.20
2023-02-25T18:00:27.400Z,14.32
2023-02-25T18:03:26.288Z,14.63
2023-02-25T18:06:51.432Z,13.32
2023-02-25T18:09:50.399Z,13.68
2023-02-25T18:12:43.377Z,17.48
2023-02-25T18:15:50.832Z,17.10
2023-02-25T18:18:41.395Z,19.27
2023-02-25T18:21:24.433Z,15.07
2023-02-25T18:24:19.339Z,16.40
2023-02-25T18:27:37.444Z,21.42
2023-02-25T18:30:34.425Z,25.27
2023-02-25T18:33:22.404Z,18.92
2023-02-25T18:36:02.395Z,17.17
2023-02-25T18:38:56.388Z,21.88
2023-02-25T18:41:50.386Z,18.45
2023-02-25T18:44:37.388Z,25.52
2023-02-25T18:47:10.538Z,28.58
2023-02-25T18:49:57.386Z,40.22
2023-02-25T18:52:31.645Z,25.35
2023-02-25T18:55:31.430Z,29.80
2023-02-25T18:58:04.916Z,27.52
2023-02-25T19:00:54.397Z,31.08
2023-02-25T19:03:46.573Z,34.33
2023-02-25T19:06:35.417Z,28.13
2023-02-25T19:09:08.527Z,23.73
2023-02-25T19:11:55.425Z,24.67
2023-02-25T19:14:35.429Z,19.08
2023-02-25T19:17:30.399Z,16.33
2023-02-25T19:20:20.438Z,15.18
2023-02-25T19:22:56.508Z,12.85
2023-02-25T19:25:43.438Z,13.13
2023-02-25T19:28:24.434Z,19.20
2023-02-25T19:31:20.475Z,12.80
2023-02-25T19:34:14.416Z,12.68
2023-02-25T19:37:08.419Z,12.35
2023-02-25T19:40:02.433Z,13.73
2023-02-25T19:42:51.458Z,12.63
2023-02-25T19:45:27.631Z,12.20
2023-02-25T19:48:14.428Z,14.20
2023-02-25T19:50:47.532Z,14.57
2023-02-25T19:53:34.424Z,15.35
2023-02-25T19:56:08.070Z,13.07
2023-02-25T19:58:54.415Z,15.40
2023-02-25T20:01:27.768Z,15.60
2023-02-25T20:04:16.453Z,12.18
2023-02-25T20:06:49.808Z,14.30
2023-02-25T20:09:36.410Z,12.68
2023-02-25T20:12:16.433Z,14.60
2023-02-25T20:15:10.421Z,14.07
2023-02-25T20:18:01.457Z,12.43
2023-02-25T20:20:41.479Z,12.68
2023-02-25T20:23:35.440Z,13.25
2023-02-25T20:26:30.453Z,14.10
2023-02-25T20:29:24.414Z,13.73
2023-02-25T20:32:11.566Z,14.88
2023-02-25T20:34:47.866Z,13.52
2023-02-25T20:37:42.444Z,12.98
2023-02-25T20:40:16.575Z,13.48
2023-02-25T20:43:03.450Z,13.68
2023-02-25T20:45:37.559Z,12.75
2023-02-25T20:48:36.431Z,15.48
2023-02-25T20:51:09.540Z,14.57
2023-02-25T20:53:56.444Z,15.13
2023-02-25T20:56:41.481Z,13.90
2023-02-25T20:59:22.441Z,13.60
2023-02-25T21:02:04.427Z,13.98
2023-02-25T21:04:37.980Z,13.40
2023-02-25T21:07:24.445Z,15.98
2023-02-25T21:09:57.621Z,13.38
2023-02-25T21:12:44.475Z,15.55
2023-02-25T21:15:18.603Z,17.02
2023-02-25T21:18:05.445Z,15.32
2023-02-25T21:20:38.522Z,14.82
2023-02-25T21:23:25.469Z,14.63
2023-02-25T21:26:07.458Z,15.45
2023-02-25T21:29:01.472Z,16.05
2023-02-25T21:31:48.522Z,17.60
2023-02-25T21:34:28.465Z,17.75
2023-02-25T21:37:22.478Z,16.58
2023-02-25T21:40:16.465Z,16.60
2023-02-25T21:43:10.450Z,16.15
2023-02-25T21:46:13.494Z,16.23
2023-02-25T21:49:09.458Z,15.38
2023-02-25T21:52:03.456Z,14.77
2023-02-25T21:54:57.476Z,13.85
2023-02-25T21:57:44.477Z,16.48
2023-02-25T22:00:25.487Z,15.32
2023-02-25T22:03:22.908Z,13.68
2023-02-25T22:06:09.465Z,14.52
2023-02-25T22:08:45.686Z,18.08
2023-02-25T22:11:39.471Z,18.02
2023-02-25T22:14:14.635Z,30.67
2023-02-25T22:17:02.174Z,30.35
2023-02-25T22:19:42.454Z,35.55
2023-02-25T22:22:29.476Z,22.40
2023-02-25T22:25:04.530Z,42.20
2023-02-25T22:27:51.509Z,36.10
2023-02-25T22:30:25.580Z,19.63
2023-02-25T22:33:12.511Z,18.88
2023-02-25T22:35:45.605Z,25.48
2023-02-25T22:38:36.526Z,20.85
2023-02-25T22:41:11.675Z,18.63
2023-02-25T22:43:58.501Z,20.35
2023-02-25T22:46:43.877Z,18.27
2023-02-25T22:49:30.492Z,17.27
2023-02-25T22:52:10.479Z,18.77
2023-02-25T22:55:04.487Z,19.52
2023-02-25T22:57:58.516Z,18.35
2023-02-25T23:00:55.561Z,22.38
2023-02-25T23:03:52.543Z,20.60
2023-02-25T23:06:46.944Z,21.17
2023-02-25T23:09:40.498Z,21.83
2023-02-25T23:12:27.511Z,19.05
2023-02-25T23:15:00.601Z,22.35
2023-02-25T23:17:47.537Z,19.92
2023-02-25T23:20:21.022Z,24.10
2023-02-25T23:23:11.508Z,23.13
2023-02-25T23:25:48.651Z,22.13
2023-02-25T23:28:35.512Z,18.42
2023-02-25T23:31:09.706Z,19.85
2023-02-25T23:33:56.518Z,22.40
2023-02-25T23:36:37.501Z,25.02
2023-02-25T23:39:31.720Z,20.33
2023-02-25T23:42:18.501Z,19.77
2023-02-25T23:44:51.626Z,19.98
2023-02-25T23:47:38.543Z,20.23
2023-02-25T23:50:12.637Z,19.55
2023-02-25T23:53:00.517Z,20.33
2023-02-25T23:55:33.638Z,20.85
2023-02-25T23:58:20.575Z,22.75
